sensor_id;sensor_type;location;lat;lon;timestamp;P1;durP1;ratioP1;P2;durP2;ratioP2
16813;SDS011;8524;57.650;11.926;2022-11-20T00:00:19;1.63;;;1.53;;
16813;SDS011;8524;57.650;11.926;2022-11-20T00:02:46;2.07;;;1.60;;
16813;SDS011;8524;57.650;11.926;2022-11-20T00:05:13;1.80;;;1.70;;
16813;SDS011;8524;57.650;11.926;2022-11-20T00:07:40;1.40;;;1.30;;
16813;SDS011;8524;57.650;11.926;2022-11-20T00:10:07;1.80;;;1.70;;
16813;SDS011;8524;57.650;11.926;2022-11-20T00:12:34;1.70;;;1.50;;
16813;SDS011;8524;57.650;11.926;2022-11-20T00:15:01;1.60;;;1.50;;
16813;SDS011;8524;57.650;11.926;2022-11-20T00:17:29;1.87;;;1.77;;
16813;SDS011;8524;57.650;11.926;2022-11-20T00:19:56;1.80;;;1.70;;
16813;SDS011;8524;57.650;11.926;2022-11-20T00:22:23;1.77;;;1.60;;
16813;SDS011;8524;57.650;11.926;2022-11-20T00:24:50;1.53;;;1.43;;
16813;SDS011;8524;57.650;11.926;2022-11-20T00:27:17;1.50;;;1.40;;
16813;SDS011;8524;57.650;11.926;2022-11-20T00:29:44;1.63;;;1.53;;
16813;SDS011;8524;57.650;11.926;2022-11-20T00:32:11;1.70;;;1.50;;
16813;SDS011;8524;57.650;11.926;2022-11-20T00:34:39;1.50;;;1.30;;
16813;SDS011;8524;57.650;11.926;2022-11-20T00:37:06;1.98;;;1.77;;
16813;SDS011;8524;57.650;11.926;2022-11-20T00:39:33;1.60;;;1.50;;
16813;SDS011;8524;57.650;11.926;2022-11-20T00:42:00;1.73;;;1.60;;
16813;SDS011;8524;57.650;11.926;2022-11-20T00:44:27;2.43;;;1.70;;
16813;SDS011;8524;57.650;11.926;2022-11-20T00:46:54;1.80;;;1.70;;
16813;SDS011;8524;57.650;11.926;2022-11-20T00:49:21;2.27;;;1.80;;
16813;SDS011;8524;57.650;11.926;2022-11-20T00:51:49;1.70;;;1.60;;
16813;SDS011;8524;57.650;11.926;2022-11-20T00:54:16;1.90;;;1.80;;
16813;SDS011;8524;57.650;11.926;2022-11-20T00:56:42;1.60;;;1.50;;
16813;SDS011;8524;57.650;11.926;2022-11-20T00:59:09;1.60;;;1.50;;
16813;SDS011;8524;57.650;11.926;2022-11-20T01:01:37;1.90;;;1.80;;
16813;SDS011;8524;57.650;11.926;2022-11-20T01:04:04;2.77;;;1.67;;
16813;SDS011;8524;57.650;11.926;2022-11-20T01:06:32;2.37;;;1.80;;
16813;SDS011;8524;57.650;11.926;2022-11-20T01:09:01;1.90;;;1.80;;
16813;SDS011;8524;57.650;11.926;2022-11-20T01:11:31;1.70;;;1.60;;
16813;SDS011;8524;57.650;11.926;2022-11-20T01:13:59;1.97;;;1.77;;
16813;SDS011;8524;57.650;11.926;2022-11-20T01:16:29;1.60;;;1.50;;
16813;SDS011;8524;57.650;11.926;2022-11-20T01:18:58;1.60;;;1.50;;
16813;SDS011;8524;57.650;11.926;2022-11-20T01:21:27;1.57;;;1.47;;
16813;SDS011;8524;57.650;11.926;2022-11-20T01:23:55;1.60;;;1.50;;
16813;SDS011;8524;57.650;11.926;2022-11-20T01:26:24;1.63;;;1.53;;
16813;SDS011;8524;57.650;11.926;2022-11-20T01:28:53;2.10;;;1.53;;
16813;SDS011;8524;57.650;11.926;2022-11-20T01:31:21;1.60;;;1.50;;
16813;SDS011;8524;57.650;11.926;2022-11-20T01:33:50;1.80;;;1.70;;
16813;SDS011;8524;57.650;11.926;2022-11-20T01:36:19;2.30;;;1.63;;
16813;SDS011;8524;57.650;11.926;2022-11-20T01:38:47;1.83;;;1.67;;
16813;SDS011;8524;57.650;11.926;2022-11-20T01:41:17;1.77;;;1.60;;
16813;SDS011;8524;57.650;11.926;2022-11-20T01:43:59;1.60;;;1.33;;
16813;SDS011;8524;57.650;11.926;2022-11-20T01:46:26;1.80;;;1.67;;
16813;SDS011;8524;57.650;11.926;2022-11-20T01:48:54;1.73;;;1.63;;
16813;SDS011;8524;57.650;11.926;2022-11-20T01:51:27;1.93;;;1.83;;
16813;SDS011;8524;57.650;11.926;2022-11-20T01:53:59;3.10;;;1.80;;
16813;SDS011;8524;57.650;11.926;2022-11-20T01:56:28;1.50;;;1.40;;
16813;SDS011;8524;57.650;11.926;2022-11-20T01:58:59;1.50;;;1.40;;
16813;SDS011;8524;57.650;11.926;2022-11-20T02:01:28;2.10;;;1.77;;
16813;SDS011;8524;57.650;11.926;2022-11-20T02:03:55;2.30;;;2.03;;
16813;SDS011;8524;57.650;11.926;2022-11-20T02:06:23;1.73;;;1.63;;
16813;SDS011;8524;57.650;11.926;2022-11-20T02:08:52;1.67;;;1.57;;
16813;SDS011;8524;57.650;11.926;2022-11-20T02:11:19;1.70;;;1.60;;
16813;SDS011;8524;57.650;11.926;2022-11-20T02:13:46;2.13;;;2.00;;
16813;SDS011;8524;57.650;11.926;2022-11-20T02:16:16;2.00;;;1.80;;
16813;SDS011;8524;57.650;11.926;2022-11-20T02:18:47;2.40;;;1.80;;
16813;SDS011;8524;57.650;11.926;2022-11-20T02:21:17;2.20;;;2.00;;
16813;SDS011;8524;57.650;11.926;2022-11-20T02:24:07;2.47;;;2.00;;
16813;SDS011;8524;57.650;11.926;2022-11-20T02:26:38;1.93;;;1.73;;
16813;SDS011;8524;57.650;11.926;2022-11-20T02:29:12;1.90;;;1.80;;
16813;SDS011;8524;57.650;11.926;2022-11-20T02:31:42;2.13;;;1.93;;
16813;SDS011;8524;57.650;11.926;2022-11-20T02:34:09;3.53;;;1.60;;
16813;SDS011;8524;57.650;11.926;2022-11-20T02:36:37;1.97;;;1.87;;
16813;SDS011;8524;57.650;11.926;2022-11-20T02:39:08;1.87;;;1.73;;
16813;SDS011;8524;57.650;11.926;2022-11-20T02:41:37;2.20;;;2.00;;
16813;SDS011;8524;57.650;11.926;2022-11-20T02:44:04;1.70;;;1.60;;
16813;SDS011;8524;57.650;11.926;2022-11-20T02:46:32;2.07;;;1.97;;
16813;SDS011;8524;57.650;11.926;2022-11-20T02:49:00;2.00;;;1.90;;
16813;SDS011;8524;57.650;11.926;2022-11-20T02:51:28;1.97;;;1.80;;
16813;SDS011;8524;57.650;11.926;2022-11-20T02:53:55;3.00;;;1.87;;
16813;SDS011;8524;57.650;11.926;2022-11-20T02:56:23;1.97;;;1.77;;
16813;SDS011;8524;57.650;11.926;2022-11-20T02:58:50;2.40;;;2.20;;
16813;SDS011;8524;57.650;11.926;2022-11-20T03:01:17;1.63;;;1.53;;
16813;SDS011;8524;57.650;11.926;2022-11-20T03:03:44;2.43;;;2.23;;
16813;SDS011;8524;57.650;11.926;2022-11-20T03:06:13;2.40;;;1.90;;
16813;SDS011;8524;57.650;11.926;2022-11-20T03:08:40;2.13;;;1.93;;
16813;SDS011;8524;57.650;11.926;2022-11-20T03:11:08;2.50;;;2.30;;
16813;SDS011;8524;57.650;11.926;2022-11-20T03:13:36;2.30;;;2.10;;
16813;SDS011;8524;57.650;11.926;2022-11-20T03:16:10;2.73;;;2.20;;
16813;SDS011;8524;57.650;11.926;2022-11-20T03:18:39;2.50;;;2.27;;
16813;SDS011;8524;57.650;11.926;2022-11-20T03:21:06;2.20;;;2.00;;
16813;SDS011;8524;57.650;11.926;2022-11-20T03:23:33;2.40;;;2.20;;
16813;SDS011;8524;57.650;11.926;2022-11-20T03:26:11;2.87;;;2.10;;
16813;SDS011;8524;57.650;11.926;2022-11-20T03:28:41;3.17;;;2.47;;
16813;SDS011;8524;57.650;11.926;2022-11-20T03:31:09;2.20;;;2.07;;
16813;SDS011;8524;57.650;11.926;2022-11-20T03:33:37;2.50;;;2.30;;
16813;SDS011;8524;57.650;11.926;2022-11-20T03:36:06;2.17;;;1.83;;
16813;SDS011;8524;57.650;11.926;2022-11-20T03:38:34;2.13;;;1.90;;
16813;SDS011;8524;57.650;11.926;2022-11-20T03:41:02;2.30;;;1.80;;
16813;SDS011;8524;57.650;11.926;2022-11-20T03:43:30;2.27;;;2.07;;
16813;SDS011;8524;57.650;11.926;2022-11-20T03:45:58;2.70;;;2.20;;
16813;SDS011;8524;57.650;11.926;2022-11-20T03:48:25;2.20;;;2.00;;
16813;SDS011;8524;57.650;11.926;2022-11-20T03:50:53;2.37;;;2.17;;
16813;SDS011;8524;57.650;11.926;2022-11-20T03:53:32;2.57;;;2.27;;
16813;SDS011;8524;57.650;11.926;2022-11-20T03:55:59;2.60;;;2.40;;
16813;SDS011;8524;57.650;11.926;2022-11-20T03:58:26;3.13;;;2.47;;
16813;SDS011;8524;57.650;11.926;2022-11-20T04:00:52;2.33;;;2.10;;
16813;SDS011;8524;57.650;11.926;2022-11-20T04:03:21;2.63;;;2.30;;
16813;SDS011;8524;57.650;11.926;2022-11-20T04:05:47;2.27;;;2.07;;
16813;SDS011;8524;57.650;11.926;2022-11-20T04:08:14;2.47;;;2.28;;
16813;SDS011;8524;57.650;11.926;2022-11-20T04:10:41;2.50;;;2.30;;
16813;SDS011;8524;57.650;11.926;2022-11-20T04:13:08;2.40;;;2.07;;
16813;SDS011;8524;57.650;11.926;2022-11-20T04:15:35;2.70;;;2.47;;
16813;SDS011;8524;57.650;11.926;2022-11-20T04:18:02;3.03;;;2.77;;
16813;SDS011;8524;57.650;11.926;2022-11-20T04:20:30;2.53;;;2.33;;
16813;SDS011;8524;57.650;11.926;2022-11-20T04:22:57;2.93;;;2.73;;
16813;SDS011;8524;57.650;11.926;2022-11-20T04:25:24;2.70;;;2.50;;
16813;SDS011;8524;57.650;11.926;2022-11-20T04:27:51;2.97;;;2.77;;
16813;SDS011;8524;57.650;11.926;2022-11-20T04:30:17;2.40;;;2.20;;
16813;SDS011;8524;57.650;11.926;2022-11-20T04:32:44;3.17;;;2.83;;
16813;SDS011;8524;57.650;11.926;2022-11-20T04:35:11;2.60;;;2.40;;
16813;SDS011;8524;57.650;11.926;2022-11-20T04:37:39;2.80;;;2.30;;
16813;SDS011;8524;57.650;11.926;2022-11-20T04:40:07;2.70;;;2.50;;
16813;SDS011;8524;57.650;11.926;2022-11-20T04:42:34;2.90;;;2.70;;
16813;SDS011;8524;57.650;11.926;2022-11-20T04:45:01;2.83;;;2.63;;
16813;SDS011;8524;57.650;11.926;2022-11-20T04:47:27;2.40;;;2.20;;
16813;SDS011;8524;57.650;11.926;2022-11-20T04:49:54;2.50;;;2.30;;
16813;SDS011;8524;57.650;11.926;2022-11-20T04:52:21;2.70;;;2.50;;
16813;SDS011;8524;57.650;11.926;2022-11-20T04:54:49;2.57;;;2.37;;
16813;SDS011;8524;57.650;11.926;2022-11-20T04:57:18;2.87;;;2.67;;
16813;SDS011;8524;57.650;11.926;2022-11-20T04:59:45;2.30;;;2.10;;
16813;SDS011;8524;57.650;11.926;2022-11-20T05:02:12;2.57;;;2.37;;
16813;SDS011;8524;57.650;11.926;2022-11-20T05:04:39;2.60;;;2.40;;
16813;SDS011;8524;57.650;11.926;2022-11-20T05:07:06;2.67;;;2.47;;
16813;SDS011;8524;57.650;11.926;2022-11-20T05:09:33;2.77;;;2.57;;
16813;SDS011;8524;57.650;11.926;2022-11-20T05:12:01;2.90;;;2.30;;
16813;SDS011;8524;57.650;11.926;2022-11-20T05:14:28;3.20;;;3.00;;
16813;SDS011;8524;57.650;11.926;2022-11-20T05:16:54;2.80;;;2.60;;
16813;SDS011;8524;57.650;11.926;2022-11-20T05:19:21;2.93;;;2.73;;
16813;SDS011;8524;57.650;11.926;2022-11-20T05:21:48;3.00;;;2.50;;
16813;SDS011;8524;57.650;11.926;2022-11-20T05:24:15;2.73;;;2.53;;
16813;SDS011;8524;57.650;11.926;2022-11-20T05:26:42;2.50;;;2.30;;
16813;SDS011;8524;57.650;11.926;2022-11-20T05:29:11;2.70;;;2.50;;
16813;SDS011;8524;57.650;11.926;2022-11-20T05:31:38;2.73;;;2.30;;
16813;SDS011;8524;57.650;11.926;2022-11-20T05:34:06;2.60;;;2.40;;
16813;SDS011;8524;57.650;11.926;2022-11-20T05:36:33;2.83;;;2.60;;
16813;SDS011;8524;57.650;11.926;2022-11-20T05:39:00;3.30;;;2.30;;
16813;SDS011;8524;57.650;11.926;2022-11-20T05:41:27;2.63;;;2.43;;
16813;SDS011;8524;57.650;11.926;2022-11-20T05:43:55;2.83;;;2.63;;
16813;SDS011;8524;57.650;11.926;2022-11-20T05:46:24;2.72;;;2.53;;
16813;SDS011;8524;57.650;11.926;2022-11-20T05:48:51;2.73;;;2.53;;
16813;SDS011;8524;57.650;11.926;2022-11-20T05:51:18;2.50;;;2.30;;
16813;SDS011;8524;57.650;11.926;2022-11-20T05:53:46;3.40;;;2.87;;
16813;SDS011;8524;57.650;11.926;2022-11-20T05:56:13;2.80;;;2.60;;
16813;SDS011;8524;57.650;11.926;2022-11-20T05:58:42;2.57;;;2.20;;
16813;SDS011;8524;57.650;11.926;2022-11-20T06:01:10;3.00;;;2.80;;
16813;SDS011;8524;57.650;11.926;2022-11-20T06:03:39;2.77;;;2.57;;
16813;SDS011;8524;57.650;11.926;2022-11-20T06:06:07;3.47;;;3.17;;
16813;SDS011;8524;57.650;11.926;2022-11-20T06:08:34;3.43;;;2.70;;
16813;SDS011;8524;57.650;11.926;2022-11-20T06:11:04;3.57;;;2.60;;
16813;SDS011;8524;57.650;11.926;2022-11-20T06:13:32;2.70;;;2.10;;
16813;SDS011;8524;57.650;11.926;2022-11-20T06:16:00;2.30;;;2.10;;
16813;SDS011;8524;57.650;11.926;2022-11-20T06:18:27;2.10;;;1.90;;
16813;SDS011;8524;57.650;11.926;2022-11-20T06:21:03;2.30;;;2.00;;
16813;SDS011;8524;57.650;11.926;2022-11-20T06:23:32;2.80;;;2.60;;
16813;SDS011;8524;57.650;11.926;2022-11-20T06:26:01;2.43;;;2.23;;
16813;SDS011;8524;57.650;11.926;2022-11-20T06:28:29;1.93;;;1.83;;
16813;SDS011;8524;57.650;11.926;2022-11-20T06:30:56;2.40;;;2.20;;
16813;SDS011;8524;57.650;11.926;2022-11-20T06:33:23;2.73;;;2.50;;
16813;SDS011;8524;57.650;11.926;2022-11-20T06:35:50;2.30;;;2.10;;
16813;SDS011;8524;57.650;11.926;2022-11-20T06:38:18;2.70;;;2.43;;
16813;SDS011;8524;57.650;11.926;2022-11-20T06:40:45;2.40;;;2.10;;
16813;SDS011;8524;57.650;11.926;2022-11-20T06:43:12;2.27;;;2.07;;
16813;SDS011;8524;57.650;11.926;2022-11-20T06:45:38;2.23;;;2.03;;
16813;SDS011;8524;57.650;11.926;2022-11-20T06:48:06;3.57;;;2.37;;
16813;SDS011;8524;57.650;11.926;2022-11-20T06:50:34;2.40;;;2.20;;
16813;SDS011;8524;57.650;11.926;2022-11-20T06:53:03;2.53;;;2.33;;
16813;SDS011;8524;57.650;11.926;2022-11-20T06:55:31;2.57;;;1.97;;
16813;SDS011;8524;57.650;11.926;2022-11-20T06:57:58;2.03;;;1.93;;
16813;SDS011;8524;57.650;11.926;2022-11-20T07:00:25;2.40;;;2.20;;
16813;SDS011;8524;57.650;11.926;2022-11-20T07:02:52;2.20;;;2.00;;
16813;SDS011;8524;57.650;11.926;2022-11-20T07:05:19;2.33;;;2.13;;
16813;SDS011;8524;57.650;11.926;2022-11-20T07:07:46;3.03;;;2.30;;
16813;SDS011;8524;57.650;11.926;2022-11-20T07:10:13;2.70;;;2.50;;
16813;SDS011;8524;57.650;11.926;2022-11-20T07:12:41;2.60;;;2.40;;
16813;SDS011;8524;57.650;11.926;2022-11-20T07:15:08;2.77;;;2.57;;
16813;SDS011;8524;57.650;11.926;2022-11-20T07:17:35;2.23;;;2.03;;
16813;SDS011;8524;57.650;11.926;2022-11-20T07:20:02;2.87;;;2.57;;
16813;SDS011;8524;57.650;11.926;2022-11-20T07:22:29;2.43;;;2.23;;
16813;SDS011;8524;57.650;11.926;2022-11-20T07:24:56;2.37;;;2.10;;
16813;SDS011;8524;57.650;11.926;2022-11-20T07:27:23;2.67;;;2.47;;
16813;SDS011;8524;57.650;11.926;2022-11-20T07:29:51;2.67;;;2.30;;
16813;SDS011;8524;57.650;11.926;2022-11-20T07:32:18;3.33;;;2.70;;
16813;SDS011;8524;57.650;11.926;2022-11-20T07:34:45;2.40;;;2.20;;
16813;SDS011;8524;57.650;11.926;2022-11-20T07:37:12;2.70;;;2.50;;
16813;SDS011;8524;57.650;11.926;2022-11-20T07:39:38;3.23;;;2.93;;
16813;SDS011;8524;57.650;11.926;2022-11-20T07:42:06;2.67;;;2.47;;
16813;SDS011;8524;57.650;11.926;2022-11-20T07:44:33;2.73;;;2.50;;
16813;SDS011;8524;57.650;11.926;2022-11-20T07:47:02;3.07;;;2.77;;
16813;SDS011;8524;57.650;11.926;2022-11-20T07:49:29;3.17;;;2.50;;
16813;SDS011;8524;57.650;11.926;2022-11-20T07:51:56;2.40;;;2.30;;
16813;SDS011;8524;57.650;11.926;2022-11-20T07:54:23;2.93;;;2.23;;
16813;SDS011;8524;57.650;11.926;2022-11-20T07:56:49;3.03;;;2.73;;
16813;SDS011;8524;57.650;11.926;2022-11-20T07:59:16;2.23;;;2.10;;
16813;SDS011;8524;57.650;11.926;2022-11-20T08:01:43;3.20;;;2.57;;
16813;SDS011;8524;57.650;11.926;2022-11-20T08:04:11;3.10;;;2.40;;
16813;SDS011;8524;57.650;11.926;2022-11-20T08:06:40;2.30;;;2.10;;
16813;SDS011;8524;57.650;11.926;2022-11-20T08:09:07;3.13;;;2.30;;
16813;SDS011;8524;57.650;11.926;2022-11-20T08:11:34;1.97;;;1.80;;
16813;SDS011;8524;57.650;11.926;2022-11-20T08:14:18;2.50;;;2.30;;
16813;SDS011;8524;57.650;11.926;2022-11-20T08:16:46;2.47;;;2.27;;
16813;SDS011;8524;57.650;11.926;2022-11-20T08:19:16;2.57;;;2.37;;
16813;SDS011;8524;57.650;11.926;2022-11-20T08:21:44;2.47;;;2.03;;
16813;SDS011;8524;57.650;11.926;2022-11-20T08:24:11;2.20;;;2.00;;
16813;SDS011;8524;57.650;11.926;2022-11-20T08:26:38;2.63;;;2.17;;
16813;SDS011;8524;57.650;11.926;2022-11-20T08:29:06;3.53;;;2.30;;
16813;SDS011;8524;57.650;11.926;2022-11-20T08:31:33;1.97;;;1.87;;
16813;SDS011;8524;57.650;11.926;2022-11-20T08:34:00;1.87;;;1.70;;
16813;SDS011;8524;57.650;11.926;2022-11-20T08:36:28;2.33;;;2.13;;
16813;SDS011;8524;57.650;11.926;2022-11-20T08:38:58;2.20;;;2.00;;
16813;SDS011;8524;57.650;11.926;2022-11-20T08:41:25;1.80;;;1.70;;
16813;SDS011;8524;57.650;11.926;2022-11-20T08:43:53;3.00;;;1.90;;
16813;SDS011;8524;57.650;11.926;2022-11-20T08:46:22;1.80;;;1.70;;
16813;SDS011;8524;57.650;11.926;2022-11-20T08:48:49;1.73;;;1.60;;
16813;SDS011;8524;57.650;11.926;2022-11-20T08:51:17;1.60;;;1.50;;
16813;SDS011;8524;57.650;11.926;2022-11-20T08:53:45;2.00;;;1.53;;
16813;SDS011;8524;57.650;11.926;2022-11-20T08:56:13;1.70;;;1.60;;
16813;SDS011;8524;57.650;11.926;2022-11-20T08:58:40;2.43;;;2.03;;
16813;SDS011;8524;57.650;11.926;2022-11-20T09:01:07;2.00;;;1.80;;
16813;SDS011;8524;57.650;11.926;2022-11-20T09:03:34;1.70;;;1.40;;
16813;SDS011;8524;57.650;11.926;2022-11-20T09:06:01;1.60;;;1.50;;
16813;SDS011;8524;57.650;11.926;2022-11-20T09:08:30;1.85;;;1.55;;
16813;SDS011;8524;57.650;11.926;2022-11-20T09:10:59;1.87;;;1.77;;
16813;SDS011;8524;57.650;11.926;2022-11-20T09:13:27;1.77;;;1.27;;
16813;SDS011;8524;57.650;11.926;2022-11-20T09:15:54;2.30;;;1.57;;
16813;SDS011;8524;57.650;11.926;2022-11-20T09:18:22;2.20;;;1.50;;
16813;SDS011;8524;57.650;11.926;2022-11-20T09:20:49;1.67;;;1.57;;
16813;SDS011;8524;57.650;11.926;2022-11-20T09:23:16;1.60;;;1.30;;
16813;SDS011;8524;57.650;11.926;2022-11-20T09:25:43;1.83;;;1.73;;
16813;SDS011;8524;57.650;11.926;2022-11-20T09:28:11;1.70;;;1.60;;
16813;SDS011;8524;57.650;11.926;2022-11-20T09:30:38;1.40;;;1.30;;
16813;SDS011;8524;57.650;11.926;2022-11-20T09:33:05;1.90;;;1.80;;
16813;SDS011;8524;57.650;11.926;2022-11-20T09:35:32;1.60;;;1.50;;
16813;SDS011;8524;57.650;11.926;2022-11-20T09:38:03;2.03;;;1.63;;
16813;SDS011;8524;57.650;11.926;2022-11-20T09:40:32;1.30;;;1.20;;
16813;SDS011;8524;57.650;11.926;2022-11-20T09:43:01;1.73;;;1.63;;
16813;SDS011;8524;57.650;11.926;2022-11-20T09:45:37;1.60;;;1.50;;
16813;SDS011;8524;57.650;11.926;2022-11-20T09:51:16;1.50;;;1.40;;
16813;SDS011;8524;57.650;11.926;2022-11-20T09:53:53;1.30;;;1.20;;
16813;SDS011;8524;57.650;11.926;2022-11-20T09:56:30;2.60;;;1.30;;
16813;SDS011;8524;57.650;11.926;2022-11-20T09:59:02;2.00;;;1.60;;
16813;SDS011;8524;57.650;11.926;2022-11-20T10:01:34;1.57;;;1.47;;
16813;SDS011;8524;57.650;11.926;2022-11-20T10:04:06;2.07;;;1.60;;
16813;SDS011;8524;57.650;11.926;2022-11-20T10:06:39;1.63;;;1.47;;
16813;SDS011;8524;57.650;11.926;2022-11-20T10:09:16;1.77;;;1.67;;
16813;SDS011;8524;57.650;11.926;2022-11-20T10:11:51;1.67;;;1.57;;
16813;SDS011;8524;57.650;11.926;2022-11-20T10:14:27;2.23;;;1.50;;
16813;SDS011;8524;57.650;11.926;2022-11-20T10:17:08;1.90;;;1.60;;
16813;SDS011;8524;57.650;11.926;2022-11-20T10:19:45;2.03;;;1.70;;
16813;SDS011;8524;57.650;11.926;2022-11-20T10:22:25;1.60;;;1.50;;
16813;SDS011;8524;57.650;11.926;2022-11-20T10:25:03;1.80;;;1.70;;
16813;SDS011;8524;57.650;11.926;2022-11-20T10:27:44;1.73;;;1.50;;
16813;SDS011;8524;57.650;11.926;2022-11-20T10:30:30;1.70;;;1.60;;
16813;SDS011;8524;57.650;11.926;2022-11-20T10:33:05;1.80;;;1.70;;
16813;SDS011;8524;57.650;11.926;2022-11-20T10:35:41;3.67;;;2.10;;
16813;SDS011;8524;57.650;11.926;2022-11-20T10:38:12;2.13;;;1.77;;
16813;SDS011;8524;57.650;11.926;2022-11-20T10:40:45;1.97;;;1.80;;
16813;SDS011;8524;57.650;11.926;2022-11-20T10:43:15;2.53;;;1.80;;
16813;SDS011;8524;57.650;11.926;2022-11-20T10:45:49;1.70;;;1.60;;
16813;SDS011;8524;57.650;11.926;2022-11-20T10:48:22;1.53;;;1.43;;
16813;SDS011;8524;57.650;11.926;2022-11-20T10:50:55;1.70;;;1.60;;
16813;SDS011;8524;57.650;11.926;2022-11-20T10:53:39;1.70;;;1.60;;
16813;SDS011;8524;57.650;11.926;2022-11-20T10:56:15;1.70;;;1.53;;
16813;SDS011;8524;57.650;11.926;2022-11-20T10:58:48;2.00;;;1.90;;
16813;SDS011;8524;57.650;11.926;2022-11-20T11:01:26;3.23;;;1.50;;
16813;SDS011;8524;57.650;11.926;2022-11-20T11:03:55;1.95;;;1.85;;
16813;SDS011;8524;57.650;11.926;2022-11-20T11:06:25;1.60;;;1.50;;
16813;SDS011;8524;57.650;11.926;2022-11-20T11:08:56;1.97;;;1.63;;
16813;SDS011;8524;57.650;11.926;2022-11-20T11:11:28;1.83;;;1.63;;
16813;SDS011;8524;57.650;11.926;2022-11-20T11:14:04;1.60;;;1.50;;
16813;SDS011;8524;57.650;11.926;2022-11-20T11:16:31;1.50;;;1.40;;
16813;SDS011;8524;57.650;11.926;2022-11-20T11:19:06;1.70;;;1.60;;
16813;SDS011;8524;57.650;11.926;2022-11-20T11:21:43;1.53;;;1.43;;
16813;SDS011;8524;57.650;11.926;2022-11-20T11:24:18;1.63;;;1.50;;
16813;SDS011;8524;57.650;11.926;2022-11-20T11:26:58;2.17;;;1.30;;
16813;SDS011;8524;57.650;11.926;2022-11-20T11:29:29;1.40;;;1.30;;
16813;SDS011;8524;57.650;11.926;2022-11-20T11:32:03;1.60;;;1.50;;
16813;SDS011;8524;57.650;11.926;2022-11-20T11:34:32;1.50;;;1.40;;
16813;SDS011;8524;57.650;11.926;2022-11-20T11:37:00;1.40;;;1.27;;
16813;SDS011;8524;57.650;11.926;2022-11-20T11:39:29;1.30;;;1.20;;
16813;SDS011;8524;57.650;11.926;2022-11-20T11:41:59;1.83;;;1.50;;
16813;SDS011;8524;57.650;11.926;2022-11-20T11:44:27;2.30;;;1.57;;
16813;SDS011;8524;57.650;11.926;2022-11-20T11:47:17;1.40;;;1.30;;
16813;SDS011;8524;57.650;11.926;2022-11-20T11:49:49;1.23;;;1.13;;
16813;SDS011;8524;57.650;11.926;2022-11-20T11:52:27;2.30;;;1.40;;
16813;SDS011;8524;57.650;11.926;2022-11-20T11:54:57;1.50;;;1.40;;
16813;SDS011;8524;57.650;11.926;2022-11-20T11:57:28;1.43;;;1.27;;
16813;SDS011;8524;57.650;11.926;2022-11-20T12:00:08;1.40;;;1.30;;
16813;SDS011;8524;57.650;11.926;2022-11-20T12:02:38;1.37;;;1.20;;
16813;SDS011;8524;57.650;11.926;2022-11-20T12:05:18;1.23;;;1.13;;
16813;SDS011;8524;57.650;11.926;2022-11-20T12:07:48;1.53;;;1.40;;
16813;SDS011;8524;57.650;11.926;2022-11-20T12:10:20;2.20;;;1.40;;
16813;SDS011;8524;57.650;11.926;2022-11-20T12:12:50;1.60;;;1.50;;
16813;SDS011;8524;57.650;11.926;2022-11-20T12:15:28;2.23;;;1.60;;
16813;SDS011;8524;57.650;11.926;2022-11-20T12:17:57;1.33;;;1.20;;
16813;SDS011;8524;57.650;11.926;2022-11-20T12:20:26;1.47;;;1.30;;
16813;SDS011;8524;57.650;11.926;2022-11-20T12:23:00;1.40;;;1.30;;
16813;SDS011;8524;57.650;11.926;2022-11-20T12:25:35;1.37;;;1.27;;
16813;SDS011;8524;57.650;11.926;2022-11-20T12:31:10;1.50;;;1.30;;
16813;SDS011;8524;57.650;11.926;2022-11-20T12:33:54;2.57;;;1.50;;
16813;SDS011;8524;57.650;11.926;2022-11-20T12:36:34;1.40;;;1.30;;
16813;SDS011;8524;57.650;11.926;2022-11-20T12:39:08;1.90;;;1.20;;
16813;SDS011;8524;57.650;11.926;2022-11-20T12:41:51;1.43;;;1.33;;
16813;SDS011;8524;57.650;11.926;2022-11-20T12:45:05;3.70;;;1.33;;
16813;SDS011;8524;57.650;11.926;2022-11-20T12:47:57;1.47;;;1.37;;
16813;SDS011;8524;57.650;11.926;2022-11-20T12:50:41;1.27;;;1.17;;
16813;SDS011;8524;57.650;11.926;2022-11-20T12:53:22;3.03;;;1.40;;
16813;SDS011;8524;57.650;11.926;2022-11-20T12:55:55;2.43;;;1.70;;
16813;SDS011;8524;57.650;11.926;2022-11-20T12:58:31;1.50;;;1.40;;
16813;SDS011;8524;57.650;11.926;2022-11-20T13:01:12;2.17;;;1.57;;
16813;SDS011;8524;57.650;11.926;2022-11-20T13:04:01;1.77;;;1.47;;
16813;SDS011;8524;57.650;11.926;2022-11-20T13:06:35;1.30;;;1.17;;
16813;SDS011;8524;57.650;11.926;2022-11-20T13:09:04;2.07;;;1.30;;
16813;SDS011;8524;57.650;11.926;2022-11-20T13:11:39;1.30;;;1.20;;
16813;SDS011;8524;57.650;11.926;2022-11-20T13:14:16;1.57;;;1.47;;
16813;SDS011;8524;57.650;11.926;2022-11-20T13:16:57;1.60;;;1.50;;
16813;SDS011;8524;57.650;11.926;2022-11-20T13:19:27;1.70;;;1.60;;
16813;SDS011;8524;57.650;11.926;2022-11-20T13:21:54;1.60;;;1.50;;
16813;SDS011;8524;57.650;11.926;2022-11-20T13:24:24;1.30;;;1.20;;
16813;SDS011;8524;57.650;11.926;2022-11-20T13:27:05;1.60;;;1.30;;
16813;SDS011;8524;57.650;11.926;2022-11-20T13:29:45;1.73;;;1.10;;
16813;SDS011;8524;57.650;11.926;2022-11-20T13:32:24;1.30;;;1.20;;
16813;SDS011;8524;57.650;11.926;2022-11-20T13:34:53;1.40;;;1.30;;
16813;SDS011;8524;57.650;11.926;2022-11-20T13:37:25;2.07;;;1.43;;
16813;SDS011;8524;57.650;11.926;2022-11-20T13:40:05;1.30;;;1.20;;
16813;SDS011;8524;57.650;11.926;2022-11-20T13:42:54;1.97;;;1.30;;
16813;SDS011;8524;57.650;11.926;2022-11-20T13:45:27;1.43;;;1.33;;
16813;SDS011;8524;57.650;11.926;2022-11-20T13:47:56;2.10;;;1.90;;
16813;SDS011;8524;57.650;11.926;2022-11-20T13:50:29;2.13;;;1.60;;
16813;SDS011;8524;57.650;11.926;2022-11-20T13:53:08;2.00;;;1.40;;
16813;SDS011;8524;57.650;11.926;2022-11-20T13:55:50;1.50;;;1.13;;
16813;SDS011;8524;57.650;11.926;2022-11-20T13:58:24;2.77;;;1.20;;
16813;SDS011;8524;57.650;11.926;2022-11-20T14:01:08;1.77;;;1.10;;
16813;SDS011;8524;57.650;11.926;2022-11-20T14:03:37;2.07;;;1.40;;
16813;SDS011;8524;57.650;11.926;2022-11-20T14:06:05;1.77;;;1.40;;
16813;SDS011;8524;57.650;11.926;2022-11-20T14:08:39;1.90;;;1.70;;
16813;SDS011;8524;57.650;11.926;2022-11-20T14:11:14;2.30;;;1.60;;
16813;SDS011;8524;57.650;11.926;2022-11-20T14:16:30;2.43;;;2.13;;
16813;SDS011;8524;57.650;11.926;2022-11-20T14:19:17;2.23;;;2.03;;
16813;SDS011;8524;57.650;11.926;2022-11-20T14:21:53;2.27;;;1.70;;
16813;SDS011;8524;57.650;11.926;2022-11-20T14:24:32;2.20;;;2.00;;
16813;SDS011;8524;57.650;11.926;2022-11-20T14:27:00;2.17;;;1.50;;
16813;SDS011;8524;57.650;11.926;2022-11-20T14:29:28;1.60;;;1.50;;
16813;SDS011;8524;57.650;11.926;2022-11-20T14:32:00;1.67;;;1.57;;
16813;SDS011;8524;57.650;11.926;2022-11-20T14:34:29;2.27;;;1.93;;
16813;SDS011;8524;57.650;11.926;2022-11-20T14:36:59;1.70;;;1.60;;
16813;SDS011;8524;57.650;11.926;2022-11-20T14:39:29;1.53;;;1.43;;
16813;SDS011;8524;57.650;11.926;2022-11-20T14:41:59;1.70;;;1.60;;
16813;SDS011;8524;57.650;11.926;2022-11-20T14:44:27;1.20;;;1.10;;
16813;SDS011;8524;57.650;11.926;2022-11-20T14:46:57;1.70;;;1.60;;
16813;SDS011;8524;57.650;11.926;2022-11-20T14:49:26;3.80;;;1.63;;
16813;SDS011;8524;57.650;11.926;2022-11-20T14:51:58;1.80;;;1.50;;
16813;SDS011;8524;57.650;11.926;2022-11-20T14:54:26;1.30;;;1.20;;
16813;SDS011;8524;57.650;11.926;2022-11-20T14:56:54;1.70;;;1.60;;
16813;SDS011;8524;57.650;11.926;2022-11-20T14:59:23;1.90;;;1.40;;
16813;SDS011;8524;57.650;11.926;2022-11-20T15:01:54;2.10;;;1.70;;
16813;SDS011;8524;57.650;11.926;2022-11-20T15:04:23;1.87;;;1.60;;
16813;SDS011;8524;57.650;11.926;2022-11-20T15:06:50;2.03;;;1.70;;
16813;SDS011;8524;57.650;11.926;2022-11-20T15:09:18;2.27;;;2.03;;
16813;SDS011;8524;57.650;11.926;2022-11-20T15:11:52;2.03;;;1.60;;
16813;SDS011;8524;57.650;11.926;2022-11-20T15:14:21;2.27;;;1.73;;